This is the latest recevied weather packets stored in our database for station/object PE1RXF-13. If no packets are shown the sender has not sent any weather packets the latest 10 day(s).
| Time | Temp. | Humidity | Pressure | Rain* | Wind** | Luminosity | Snow |
|---|---|---|---|---|---|---|---|
| 1788093156 | 22.78° C | 99% | 1008.4 hPa | 3.81 mm | - | 138 W/m² | - |
| 1788092053 | 21.67° C | 99% | 1008.3 hPa | 3.81 mm | - | 165 W/m² | - |
| 1788090950 | 20° C | 99% | 1008.2 hPa | 0.25 mm | - | 83 W/m² | - |
| 1788089847 | 19.44° C | 99% | 1008 hPa | 0.25 mm | - | 110 W/m² | - |
| 1788088744 | 18.33° C | 99% | 1008 hPa | 0.25 mm | - | 44 W/m² | - |
| 1788087641 | 20° C | 99% | 1007.7 hPa | 0.25 mm | - | 38 W/m² | - |
| 1788086538 | 20.56° C | 99% | 1007.5 hPa | 0 mm | - | 46 W/m² | - |
| 1788085435 | 21.11° C | 99% | 1007.4 hPa | 0 mm | - | 76 W/m² | - |
| 1788084332 | 21.11° C | 99% | 1007.2 hPa | 0 mm | - | 75 W/m² | - |
| 1788083229 | 22.22° C | 99% | 1006.9 hPa | 0 mm | - | 102 W/m² | - |
| 1788082126 | 21.67° C | 99% | 1006.8 hPa | 0 mm | - | 91 W/m² | - |
| 1788081023 | 21.11° C | 99% | 1006.6 hPa | 0 mm | - | 72 W/m² | - |
| 1788079920 | 20° C | 99% | 1006.3 hPa | 0 mm | - | 65 W/m² | - |
| 1788078817 | 20.56° C | 99% | 1005.9 hPa | 0 mm | - | 63 W/m² | - |
| 1788077714 | 19.44° C | 99% | 1005.7 hPa | 0 mm | - | 39 W/m² | - |
| 1788076611 | 17.78° C | 99% | 1005.7 hPa | 0.25 mm | - | 32 W/m² | - |
| 1788075508 | 17.22° C | 99% | 1005.5 hPa | 0.25 mm | - | 19 W/m² | - |
| 1788074405 | 17.22° C | 99% | 1005.1 hPa | 0.25 mm | - | 8 W/m² | - |
| 1788073302 | 17.22° C | 99% | 1004.9 hPa | 0.25 mm | - | 7 W/m² | - |
| 1788072199 | 16.67° C | 99% | 1004.7 hPa | 0.25 mm | - | 3 W/m² | - |
| 1788071096 | 16.67° C | 99% | 1004.4 hPa | 0.25 mm | - | 6 W/m² | - |
| 1788069993 | 16.67° C | 99% | 1004.2 hPa | 0.25 mm | - | 2 W/m² | - |
| 1788068890 | 16.67° C | 99% | 1004.1 hPa | 0 mm | - | 2 W/m² | - |
| 1788067787 | 16.67° C | 99% | 1003.9 hPa | 0 mm | - | 1 W/m² | - |
| 1788066684 | 16.67° C | 99% | 1003.7 hPa | 0 mm | - | 1 W/m² | - |
* Rain latest hour (hover to see other rain measurements)
** Current wind speed in m/s (hover to see current wind gust speed)